Alzada, Montana
Current Conditions -  °F | °C
As of 5:35 PM on Tuesday 25 Nov 2014 (Local Time) from KSPF Reporting Station
Unknown Precip Unknown Precip  
Wind Chill: -8°   Ceiling: Unl
Heat Index:   Visibility: 10mi
Dew Point: -5°   Wind: 28mph
Humidity: 69%   Direction: 300°WNW
Pressure: 29.89"   Gusts: 37mph
Location:  45.03°N, 104.42°W
Report Text: KSPF 260035Z AUTO 30024G32KT 10SM UP FEW033 SCT041 00/M05 A2989 RMK AO2
Loading
Personal Weather Stations






























Interactive Weather Map New forecast layout! Learn more

10-Day Weather Forecast

Advertisements
Track Severe Weather on mobile